createdAt,value
2023-01-12T00:01:42.853Z,11.44
2023-01-12T00:04:14.181Z,11.49
2023-01-12T00:06:43.609Z,11.49
2023-01-12T00:09:13.014Z,11.53
2023-01-12T00:11:42.246Z,11.57
2023-01-12T00:14:11.561Z,11.49
2023-01-12T00:16:42.005Z,11.15
2023-01-12T00:19:13.044Z,11.30
2023-01-12T00:21:56.636Z,11.38
2023-01-12T00:24:27.578Z,11.48
2023-01-12T00:26:57.752Z,11.51
2023-01-12T00:29:27.888Z,11.61
2023-01-12T00:31:59.388Z,11.66
2023-01-12T00:34:29.799Z,11.69
2023-01-12T00:37:01.283Z,11.75
2023-01-12T00:39:30.303Z,11.76
2023-01-12T00:42:16.961Z,11.78
2023-01-12T00:45:03.192Z,11.81
2023-01-12T00:47:34.413Z,11.82
2023-01-12T00:50:03.372Z,11.80
2023-01-12T00:52:32.244Z,11.80
2023-01-12T00:55:01.377Z,11.78
2023-01-12T00:57:30.222Z,11.82
2023-01-12T01:00:00.345Z,11.75
2023-01-12T01:02:29.944Z,11.70
2023-01-12T01:05:00.343Z,11.70
2023-01-12T01:07:29.039Z,11.50
2023-01-12T01:09:58.050Z,11.46
2023-01-12T01:12:27.128Z,11.49
2023-01-12T01:14:56.636Z,11.55
2023-01-12T01:17:25.443Z,11.51
2023-01-12T01:19:54.355Z,11.54
2023-01-12T01:22:24.374Z,11.65
2023-01-12T01:24:53.206Z,11.46
2023-01-12T01:27:21.937Z,11.38
2023-01-12T01:29:51.105Z,11.41
2023-01-12T01:32:19.681Z,11.43
2023-01-12T01:34:49.030Z,11.56
2023-01-12T01:37:18.486Z,11.52
2023-01-12T01:39:48.819Z,11.56
2023-01-12T01:42:28.384Z,11.52
2023-01-12T01:45:00.878Z,11.57
2023-01-12T01:47:36.274Z,11.66
2023-01-12T01:50:13.813Z,11.69
2023-01-12T01:52:46.412Z,11.61
2023-01-12T01:55:21.920Z,11.55
2023-01-12T01:57:53.641Z,11.60
2023-01-12T02:00:23.663Z,11.68
2023-01-12T02:02:53.477Z,11.68
2023-01-12T02:05:26.152Z,11.71
2023-01-12T02:07:56.263Z,11.75
2023-01-12T02:10:26.945Z,11.87
2023-01-12T02:13:27.785Z,11.89
2023-01-12T02:16:20.507Z,12.09
2023-01-12T02:18:58.068Z,12.14
2023-01-12T02:21:57.092Z,12.18
2023-01-12T02:24:58.178Z,12.26
2023-01-12T02:27:57.953Z,12.29
2023-01-12T02:31:02.943Z,12.25
2023-01-12T02:33:44.952Z,12.03
2023-01-12T02:36:19.337Z,12.04
2023-01-12T02:38:52.961Z,11.95
2023-01-12T02:41:41.816Z,11.97
2023-01-12T02:44:31.739Z,12.06
2023-01-12T02:47:04.289Z,12.03
2023-01-12T02:49:41.220Z,12.12
2023-01-12T02:52:15.739Z,12.09
2023-01-12T02:54:50.802Z,12.14
2023-01-12T02:57:24.462Z,12.11
2023-01-12T02:59:56.050Z,12.05
2023-01-12T03:02:27.818Z,12.06
2023-01-12T03:04:58.478Z,12.02
2023-01-12T03:07:43.847Z,12.18
2023-01-12T03:10:41.471Z,12.20
2023-01-12T03:13:13.444Z,12.06
2023-01-12T03:15:47.311Z,12.09
2023-01-12T03:18:19.873Z,12.03
2023-01-12T03:20:55.223Z,12.09
2023-01-12T03:23:30.948Z,11.98
2023-01-12T03:26:02.385Z,11.92
2023-01-12T03:28:35.814Z,11.92
2023-01-12T03:31:11.445Z,11.90
2023-01-12T03:33:43.094Z,11.80
2023-01-12T03:36:35.661Z,11.97
2023-01-12T03:39:15.038Z,11.85
2023-01-12T03:41:56.030Z,11.86
2023-01-12T03:44:34.020Z,11.90
2023-01-12T03:47:08.629Z,11.75
2023-01-12T03:49:42.783Z,11.84
2023-01-12T03:52:14.397Z,11.87
2023-01-12T03:54:45.262Z,11.89
2023-01-12T03:57:15.353Z,11.89
2023-01-12T03:59:44.329Z,11.96
2023-01-12T04:02:14.554Z,11.91
2023-01-12T04:04:44.253Z,11.92
2023-01-12T04:07:15.221Z,11.99
2023-01-12T04:09:43.874Z,12.02
2023-01-12T04:12:12.685Z,12.06
2023-01-12T04:14:46.871Z,12.01
2023-01-12T04:17:17.790Z,12.02
2023-01-12T04:19:46.413Z,11.96
2023-01-12T04:22:35.003Z,11.99
2023-01-12T04:25:04.033Z,11.97
2023-01-12T04:27:33.132Z,11.96
2023-01-12T04:30:01.860Z,11.98
2023-01-12T04:32:31.015Z,11.97
2023-01-12T04:34:59.893Z,12.00
2023-01-12T04:37:30.095Z,12.03
2023-01-12T04:39:58.820Z,12.08
2023-01-12T04:42:45.630Z,12.02
2023-01-12T04:45:14.257Z,12.05
2023-01-12T04:47:43.899Z,12.04
2023-01-12T04:50:12.556Z,11.79
2023-01-12T04:52:43.249Z,11.37
2023-01-12T04:55:12.510Z,11.38
2023-01-12T04:57:41.679Z,11.36
2023-01-12T05:00:11.788Z,11.40
2023-01-12T05:02:40.791Z,11.41
2023-01-12T05:05:09.833Z,11.37
2023-01-12T05:07:59.075Z,11.26
2023-01-12T05:10:28.139Z,11.30
2023-01-12T05:12:57.226Z,11.29
2023-01-12T05:15:26.187Z,11.38
2023-01-12T05:17:55.589Z,11.42
2023-01-12T05:20:24.497Z,11.38
2023-01-12T05:22:53.491Z,11.45
2023-01-12T05:25:22.665Z,11.11
2023-01-12T05:27:57.884Z,9.86
2023-01-12T05:30:29.383Z,9.40
2023-01-12T05:33:00.990Z,9.56
2023-01-12T05:35:29.910Z,9.32
2023-01-12T05:37:59.159Z,9.19
2023-01-12T05:40:28.059Z,9.15
2023-01-12T05:43:15.704Z,9.72
2023-01-12T05:45:44.544Z,10.14
2023-01-12T05:48:13.504Z,10.39
2023-01-12T05:50:42.094Z,10.67
2023-01-12T05:53:11.403Z,10.86
2023-01-12T05:55:40.257Z,11.01
2023-01-12T05:58:10.817Z,11.21
2023-01-12T06:00:39.626Z,11.24
2023-01-12T06:03:08.902Z,11.36
2023-01-12T06:05:37.466Z,11.45
2023-01-12T06:08:07.036Z,11.53
2023-01-12T06:10:37.089Z,11.53
2023-01-12T06:13:23.903Z,11.61
2023-01-12T06:15:54.151Z,11.69
2023-01-12T06:18:23.484Z,11.74
2023-01-12T06:20:52.397Z,11.73
2023-01-12T06:23:21.335Z,11.04
2023-01-12T06:26:09.101Z,10.02
2023-01-12T06:28:40.965Z,9.79
2023-01-12T06:31:12.969Z,9.70
2023-01-12T06:33:43.272Z,9.90
2023-01-12T06:36:12.993Z,10.09
2023-01-12T06:38:43.338Z,9.69
2023-01-12T06:41:34.534Z,10.22
2023-01-12T06:44:03.499Z,10.57
2023-01-12T06:46:33.689Z,10.59
2023-01-12T06:49:02.622Z,10.90
2023-01-12T06:51:31.346Z,11.11
2023-01-12T06:54:01.483Z,11.29
2023-01-12T06:56:30.182Z,11.45
2023-01-12T06:58:59.167Z,11.52
2023-01-12T07:01:27.853Z,11.62
2023-01-12T07:03:58.348Z,11.72
2023-01-12T07:06:27.585Z,11.78
2023-01-12T07:08:56.546Z,11.84
2023-01-12T07:11:25.768Z,11.86
2023-01-12T07:13:56.359Z,11.67
2023-01-12T07:16:25.345Z,11.56
2023-01-12T07:18:54.333Z,11.60
2023-01-12T07:21:24.707Z,10.28
2023-01-12T07:23:53.905Z,9.38
2023-01-12T07:26:22.539Z,8.81
2023-01-12T07:28:51.677Z,8.19
2023-01-12T07:31:20.480Z,8.15
2023-01-12T07:33:52.127Z,8.06
2023-01-12T07:36:21.314Z,7.96
2023-01-12T07:38:51.886Z,7.97
2023-01-12T07:41:38.055Z,7.88
2023-01-12T07:44:15.205Z,7.87
2023-01-12T07:46:44.439Z,7.89
2023-01-12T07:49:14.146Z,7.82
2023-01-12T07:51:42.780Z,7.95
2023-01-12T07:54:13.780Z,7.75
2023-01-12T07:56:44.312Z,7.71
2023-01-12T07:59:13.345Z,8.03
2023-01-12T08:01:42.380Z,7.94
2023-01-12T08:04:11.360Z,7.67
2023-01-12T08:06:39.993Z,7.72
2023-01-12T08:09:09.000Z,7.47
2023-01-12T08:11:40.135Z,7.81
2023-01-12T08:14:09.641Z,7.61
2023-01-12T08:16:42.178Z,7.31
2023-01-12T08:19:17.602Z,7.20
2023-01-12T08:21:50.948Z,7.61
2023-01-12T08:24:25.833Z,7.98
2023-01-12T08:26:59.953Z,8.41
2023-01-12T08:29:33.960Z,8.97
2023-01-12T08:32:05.189Z,9.35
2023-01-12T08:34:35.293Z,9.78
2023-01-12T08:37:09.626Z,9.76
2023-01-12T08:39:39.492Z,10.20
2023-01-12T08:42:09.677Z,10.47
2023-01-12T08:44:38.962Z,10.44
2023-01-12T08:47:17.234Z,10.19
2023-01-12T08:49:46.981Z,10.40
2023-01-12T08:52:16.916Z,10.70
2023-01-12T08:54:46.593Z,11.01
2023-01-12T08:57:19.351Z,11.25
2023-01-12T08:59:48.387Z,11.44
2023-01-12T09:02:17.560Z,11.69
2023-01-12T09:04:46.762Z,11.70
2023-01-12T09:07:17.185Z,11.95
2023-01-12T09:09:46.066Z,12.17
2023-01-12T09:12:16.728Z,12.31
2023-01-12T09:14:45.689Z,12.47
2023-01-12T09:17:14.402Z,12.61
2023-01-12T09:19:44.647Z,12.76
2023-01-12T09:22:13.420Z,12.84
2023-01-12T09:24:42.516Z,12.94
2023-01-12T09:27:12.220Z,12.97
2023-01-12T09:29:42.525Z,13.07
2023-01-12T09:32:11.113Z,13.11
2023-01-12T09:34:40.354Z,13.15
2023-01-12T09:37:08.944Z,13.25
2023-01-12T09:39:38.000Z,13.34
2023-01-12T09:42:24.854Z,13.31
2023-01-12T09:45:12.505Z,13.37
2023-01-12T09:48:14.340Z,13.47
2023-01-12T09:50:53.006Z,13.60
2023-01-12T09:53:26.641Z,13.53
2023-01-12T09:56:04.743Z,13.61
2023-01-12T09:58:55.385Z,13.67
2023-01-12T10:01:30.428Z,13.59
2023-01-12T10:04:02.697Z,13.59
2023-01-12T10:06:33.072Z,13.66
2023-01-12T10:09:03.225Z,13.67
2023-01-12T10:11:41.440Z,13.78
2023-01-12T10:14:32.253Z,13.88
2023-01-12T10:17:18.087Z,13.91
2023-01-12T10:19:55.014Z,13.89
2023-01-12T10:22:38.878Z,13.90
2023-01-12T10:25:17.329Z,14.06
2023-01-12T10:27:48.268Z,13.99
2023-01-12T10:30:19.724Z,13.90
2023-01-12T10:32:49.991Z,13.93
2023-01-12T10:35:20.932Z,13.81
2023-01-12T10:37:52.916Z,13.80
2023-01-12T10:40:28.936Z,13.93
2023-01-12T10:43:24.034Z,14.12
2023-01-12T10:46:10.333Z,14.03
2023-01-12T10:48:43.293Z,13.43
2023-01-12T10:51:22.867Z,13.82
2023-01-12T10:53:56.126Z,13.47
2023-01-12T10:56:30.042Z,13.67
2023-01-12T10:59:02.601Z,12.00
2023-01-12T11:01:45.603Z,12.76
2023-01-12T11:04:20.434Z,12.12
2023-01-12T11:06:58.632Z,12.79
2023-01-12T11:09:30.122Z,12.96
2023-01-12T11:12:00.115Z,13.17
2023-01-12T11:14:32.815Z,12.59
2023-01-12T11:17:21.713Z,12.50
2023-01-12T11:19:54.569Z,12.72
2023-01-12T11:22:28.953Z,12.90
2023-01-12T11:25:02.221Z,12.95
2023-01-12T11:27:37.032Z,12.92
2023-01-12T11:30:16.120Z,12.86
2023-01-12T11:32:50.454Z,13.18
2023-01-12T11:35:29.499Z,13.01
2023-01-12T11:38:02.265Z,12.37
2023-01-12T11:40:33.908Z,12.56
2023-01-12T11:43:34.276Z,11.58
2023-01-12T11:46:13.616Z,12.41
2023-01-12T11:48:51.674Z,12.41
2023-01-12T11:51:22.295Z,11.20
2023-01-12T11:53:51.134Z,11.47
2023-01-12T11:56:57.147Z,11.31
2023-01-12T11:59:34.593Z,10.90
2023-01-12T12:02:20.170Z,10.25
2023-01-12T12:05:00.935Z,10.02
2023-01-12T12:07:46.066Z,10.36
2023-01-12T12:10:23.950Z,10.35
2023-01-12T12:13:16.273Z,10.01
2023-01-12T12:15:53.786Z,10.31
2023-01-12T12:18:39.747Z,10.03
2023-01-12T12:21:22.632Z,10.26
2023-01-12T12:24:06.723Z,10.87
2023-01-12T12:26:38.493Z,11.00
2023-01-12T12:29:22.749Z,10.42
2023-01-12T12:32:04.985Z,10.17
2023-01-12T12:34:55.427Z,10.03
2023-01-12T12:37:36.210Z,10.24
2023-01-12T12:40:18.361Z,10.85
2023-01-12T12:43:14.448Z,10.84
2023-01-12T12:45:51.420Z,10.99
2023-01-12T12:48:25.735Z,10.99
2023-01-12T12:51:02.284Z,10.75
2023-01-12T12:53:35.553Z,11.18
2023-01-12T12:56:09.013Z,11.02
2023-01-12T12:58:43.778Z,10.30
2023-01-12T13:01:55.171Z,10.92
2023-01-12T13:05:05.507Z,10.33
2023-01-12T13:07:44.078Z,10.70
2023-01-12T13:10:25.437Z,10.81
2023-01-12T13:13:05.055Z,11.03
2023-01-12T13:15:37.472Z,11.25
2023-01-12T13:18:07.444Z,11.40
2023-01-12T13:20:55.746Z,11.78
2023-01-12T13:23:48.903Z,11.94
2023-01-12T13:26:42.689Z,10.56
2023-01-12T13:29:47.942Z,10.79
2023-01-12T13:32:58.775Z,10.95
2023-01-12T13:35:57.490Z,11.00
2023-01-12T13:38:39.380Z,10.66
2023-01-12T13:41:45.636Z,10.78
2023-01-12T13:44:21.503Z,10.39
2023-01-12T13:46:52.722Z,10.72
2023-01-12T13:49:34.106Z,11.14
2023-01-12T13:52:06.192Z,11.40
2023-01-12T13:54:36.109Z,10.92
2023-01-12T13:57:10.671Z,10.40
2023-01-12T13:59:40.201Z,10.34
2023-01-12T14:02:19.245Z,10.60
2023-01-12T14:05:03.322Z,10.94
2023-01-12T14:07:44.970Z,10.88
2023-01-12T14:10:29.424Z,11.48
2023-01-12T14:13:24.557Z,11.82
2023-01-12T14:16:19.323Z,12.09
2023-01-12T14:18:51.229Z,12.15
2023-01-12T14:21:26.019Z,12.44
2023-01-12T14:24:09.547Z,12.56
2023-01-12T14:26:38.206Z,12.53
2023-01-12T14:29:09.646Z,12.42
2023-01-12T14:31:40.437Z,12.24
2023-01-12T14:34:24.646Z,12.24
2023-01-12T14:36:56.308Z,12.45
2023-01-12T14:39:29.032Z,12.63
2023-01-12T14:42:15.939Z,12.78
2023-01-12T14:45:09.726Z,13.00
2023-01-12T14:47:38.956Z,13.03
2023-01-12T14:50:18.792Z,13.19
2023-01-12T14:52:53.368Z,12.84
2023-01-12T14:55:29.075Z,12.88
2023-01-12T14:58:00.743Z,12.94
2023-01-12T15:00:32.555Z,13.06
2023-01-12T15:03:04.914Z,13.06
2023-01-12T15:05:36.830Z,13.12
2023-01-12T15:08:23.590Z,13.36
2023-01-12T15:10:58.619Z,13.30
2023-01-12T15:13:29.798Z,13.19
2023-01-12T15:16:16.099Z,12.99
2023-01-12T15:19:02.158Z,13.09
2023-01-12T15:21:50.593Z,12.99
2023-01-12T15:24:41.554Z,12.76
2023-01-12T15:27:12.328Z,12.91
2023-01-12T15:29:40.876Z,12.64
2023-01-12T15:32:15.375Z,12.66
2023-01-12T15:34:43.970Z,12.74
2023-01-12T15:37:16.024Z,12.81
2023-01-12T15:39:46.288Z,12.42
2023-01-12T15:42:21.436Z,12.59
2023-01-12T15:44:51.995Z,12.61
2023-01-12T15:47:22.972Z,12.21
2023-01-12T15:49:53.463Z,12.45
2023-01-12T15:52:25.035Z,12.52
2023-01-12T15:54:55.076Z,12.43
2023-01-12T15:57:24.406Z,12.47
2023-01-12T15:59:53.047Z,12.57
2023-01-12T16:02:27.756Z,12.64
2023-01-12T16:04:56.400Z,12.45
2023-01-12T16:07:25.771Z,12.31
2023-01-12T16:09:55.855Z,12.39
2023-01-12T16:12:26.140Z,12.43
2023-01-12T16:14:56.623Z,12.43
2023-01-12T16:17:26.131Z,12.37
2023-01-12T16:19:54.713Z,12.44
2023-01-12T16:22:28.025Z,12.44
2023-01-12T16:24:58.099Z,12.42
2023-01-12T16:27:28.167Z,12.46
2023-01-12T16:29:56.903Z,12.47
2023-01-12T16:32:26.676Z,12.46
2023-01-12T16:34:55.447Z,12.46
2023-01-12T16:37:27.562Z,12.48
2023-01-12T16:39:57.739Z,12.57
2023-01-12T16:42:30.233Z,12.57
2023-01-12T16:44:59.573Z,12.57
2023-01-12T16:47:28.596Z,12.53
2023-01-12T16:49:57.285Z,12.56
2023-01-12T16:52:26.315Z,12.21
2023-01-12T16:54:54.895Z,12.28
2023-01-12T16:57:25.572Z,12.35
2023-01-12T16:59:54.243Z,12.39
2023-01-12T17:02:23.439Z,12.28
2023-01-12T17:04:53.109Z,12.30
2023-01-12T17:07:22.412Z,12.32
2023-01-12T17:09:51.295Z,12.33
2023-01-12T17:12:20.384Z,12.31
2023-01-12T17:14:50.564Z,12.32
2023-01-12T17:17:20.875Z,12.29
2023-01-12T17:19:49.880Z,12.28
2023-01-12T17:22:18.939Z,12.28
2023-01-12T17:24:47.890Z,12.25
2023-01-12T17:27:16.987Z,12.21
2023-01-12T17:29:45.605Z,12.17
2023-01-12T17:32:16.088Z,12.16
2023-01-12T17:34:47.970Z,12.14
2023-01-12T17:37:17.305Z,12.13
2023-01-12T17:39:47.380Z,12.17
2023-01-12T17:42:35.518Z,12.16
2023-01-12T17:45:05.046Z,12.19
2023-01-12T17:47:35.407Z,12.16
2023-01-12T17:50:04.110Z,12.14
2023-01-12T17:52:33.087Z,12.14
2023-01-12T17:55:01.722Z,12.15
2023-01-12T17:57:31.635Z,12.16
2023-01-12T18:00:00.305Z,12.08
2023-01-12T18:02:29.306Z,12.05
2023-01-12T18:04:59.417Z,12.05
2023-01-12T18:07:29.004Z,11.95
2023-01-12T18:09:57.661Z,11.95
2023-01-12T18:12:27.523Z,11.94
2023-01-12T18:14:56.748Z,11.84
2023-01-12T18:17:25.715Z,11.83
2023-01-12T18:19:54.419Z,11.77
2023-01-12T18:22:24.716Z,11.75
2023-01-12T18:24:53.278Z,11.69
2023-01-12T18:27:22.311Z,11.67
2023-01-12T18:29:50.846Z,11.62
2023-01-12T18:32:19.682Z,11.59
2023-01-12T18:34:48.272Z,11.59
2023-01-12T18:37:17.953Z,11.50
2023-01-12T18:39:50.111Z,11.51
2023-01-12T18:42:36.454Z,11.41
2023-01-12T18:45:05.546Z,11.40
2023-01-12T18:47:52.096Z,11.37
2023-01-12T18:50:38.506Z,11.32
2023-01-12T18:53:29.978Z,11.22
2023-01-12T18:56:03.352Z,11.16
2023-01-12T18:58:33.540Z,11.07
2023-01-12T19:01:04.886Z,11.10
2023-01-12T19:03:36.724Z,11.15
2023-01-12T19:06:22.223Z,11.20
2023-01-12T19:09:10.622Z,11.13
2023-01-12T19:11:41.295Z,11.12
2023-01-12T19:14:28.552Z,11.05
2023-01-12T19:17:14.494Z,11.02
2023-01-12T19:19:43.341Z,10.97
2023-01-12T19:22:29.552Z,10.88
2023-01-12T19:25:15.593Z,10.86
2023-01-12T19:28:03.871Z,10.93
2023-01-12T19:30:33.343Z,10.94
2023-01-12T19:33:03.785Z,10.93
2023-01-12T19:35:32.664Z,10.90
2023-01-12T19:38:01.473Z,10.90
2023-01-12T19:40:34.887Z,10.89
2023-01-12T19:43:14.580Z,10.71
2023-01-12T19:45:44.903Z,10.51
2023-01-12T19:48:15.698Z,10.45
2023-01-12T19:50:45.322Z,10.20
2023-01-12T19:53:15.735Z,10.34
2023-01-12T19:55:44.630Z,10.36
2023-01-12T19:58:15.304Z,10.23
2023-01-12T20:00:46.375Z,10.24
2023-01-12T20:03:16.742Z,10.37
2023-01-12T20:05:47.621Z,10.48
2023-01-12T20:08:16.590Z,10.49
2023-01-12T20:10:45.769Z,10.52
2023-01-12T20:13:15.728Z,10.56
2023-01-12T20:15:44.915Z,10.60
2023-01-12T20:18:13.901Z,10.62
2023-01-12T20:20:43.299Z,10.64
2023-01-12T20:23:12.898Z,10.66
2023-01-12T20:25:43.186Z,10.67
2023-01-12T20:28:12.496Z,10.67
2023-01-12T20:30:44.128Z,10.49
2023-01-12T20:33:13.345Z,10.52
2023-01-12T20:35:46.390Z,10.58
2023-01-12T20:38:16.896Z,10.50
2023-01-12T20:40:46.959Z,10.54
2023-01-12T20:43:15.690Z,10.59
2023-01-12T20:45:46.344Z,10.52
2023-01-12T20:48:15.591Z,10.51
2023-01-12T20:50:45.084Z,10.54
2023-01-12T20:53:14.829Z,10.55
2023-01-12T20:55:45.130Z,10.60
2023-01-12T20:58:14.228Z,10.61
2023-01-12T21:00:45.372Z,10.62
2023-01-12T21:03:14.460Z,10.62
2023-01-12T21:05:44.538Z,10.59
2023-01-12T21:08:14.366Z,10.54
2023-01-12T21:10:50.502Z,10.67
2023-01-12T21:13:20.098Z,10.58
2023-01-12T21:15:58.591Z,10.72
2023-01-12T21:18:27.601Z,10.61
2023-01-12T21:20:57.284Z,10.61
2023-01-12T21:23:26.780Z,10.59
2023-01-12T21:25:55.825Z,10.57
2023-01-12T21:28:25.138Z,10.56
2023-01-12T21:30:55.714Z,10.56
2023-01-12T21:33:24.283Z,10.53
2023-01-12T21:35:56.842Z,10.60
2023-01-12T21:38:26.745Z,10.58
2023-01-12T21:40:56.678Z,10.62
2023-01-12T21:43:24.438Z,10.73
2023-01-12T21:45:57.495Z,10.71
2023-01-12T21:48:26.304Z,10.72
2023-01-12T21:50:55.370Z,10.78
2023-01-12T21:53:25.036Z,10.76
2023-01-12T21:55:55.462Z,10.80
2023-01-12T21:58:24.253Z,10.84
2023-01-12T22:00:54.217Z,10.88
2023-01-12T22:03:26.610Z,11.01
2023-01-12T22:05:56.337Z,11.10
2023-01-12T22:08:24.874Z,11.17
2023-01-12T22:10:53.871Z,11.15
2023-01-12T22:13:22.566Z,11.26
2023-01-12T22:15:52.285Z,11.32
2023-01-12T22:18:21.190Z,11.42
2023-01-12T22:20:51.574Z,11.47
2023-01-12T22:23:20.218Z,11.55
2023-01-12T22:25:49.067Z,11.54
2023-01-12T22:28:17.653Z,11.63
2023-01-12T22:30:46.624Z,11.66
2023-01-12T22:33:15.944Z,11.71
2023-01-12T22:35:44.942Z,11.76
2023-01-12T22:38:15.013Z,11.78
2023-01-12T22:40:43.824Z,11.81
2023-01-12T22:43:27.487Z,11.81
2023-01-12T22:45:58.048Z,11.85
2023-01-12T22:48:28.379Z,11.87
2023-01-12T22:51:01.927Z,12.01
2023-01-12T22:53:32.169Z,11.95
2023-01-12T22:56:01.841Z,11.96
2023-01-12T22:58:31.041Z,12.00
2023-01-12T23:01:04.422Z,12.00
2023-01-12T23:03:33.417Z,11.94
2023-01-12T23:06:03.142Z,11.99
2023-01-12T23:08:33.513Z,12.02
2023-01-12T23:11:07.687Z,12.09
2023-01-12T23:13:36.781Z,12.07
2023-01-12T23:16:07.902Z,12.09
2023-01-12T23:18:39.952Z,12.11
2023-01-12T23:21:14.270Z,12.14
2023-01-12T23:23:46.859Z,12.18
2023-01-12T23:26:17.984Z,12.16
2023-01-12T23:28:48.674Z,12.12
2023-01-12T23:31:19.853Z,12.13
2023-01-12T23:33:48.992Z,12.17
2023-01-12T23:36:20.035Z,12.16
2023-01-12T23:38:53.887Z,12.22
2023-01-12T23:41:25.472Z,12.14
2023-01-12T23:43:56.233Z,12.18
2023-01-12T23:46:25.291Z,12.23
2023-01-12T23:48:55.909Z,12.22
2023-01-12T23:51:26.116Z,12.29
2023-01-12T23:53:57.461Z,12.33
2023-01-12T23:56:28.130Z,12.33
2023-01-12T23:58:57.108Z,12.36
